Time;durP1;ratioP1;P1;durP2;ratioP2;P2;SDS_P1;SDS_P2;PMS_P1;PMS_P2;Temp;Humidity;BMP_temperature;BMP_pressure;BME280_temperature;BME280_humidity;BME280_pressure;Samples;Min_cycle;Max_cycle;Signal;HPM_P1;HPM_P2
2021/11/12 00:13:43;;;;;;;12.43;9.48;;;9.20;99.90;;;;;;5087808;28;20068;-82
2021/11/12 00:16:09;;;;;;;18.38;9.30;;;9.20;99.90;;;;;;5063547;28;20035;-81
2021/11/12 00:18:35;;;;;;;;;;;9.20;99.90;;;;;;5085129;28;20324;-79
2021/11/12 00:21:03;;;;;;;19.73;13.23;;;9.20;99.90;;;;;;5088335;28;19923;-81
2021/11/12 00:23:31;;;;;;;16.58;8.75;;;9.20;99.90;;;;;;5079167;28;20078;-81
2021/11/12 00:25:56;;;;;;;18.55;10.75;;;9.20;99.90;;;;;;5085621;28;20094;-83
2021/11/12 00:28:25;;;;;;;26.55;11.23;;;9.20;99.90;;;;;;5065290;28;20055;-81
2021/11/12 00:30:59;;;;;;;13.27;9.98;;;9.10;99.90;;;;;;5090901;28;20373;-81
2021/11/12 00:38:21;;;;;;;16.90;11.55;;;9.20;99.90;;;;;;5081195;28;20052;-85
2021/11/12 00:48:49;;;;;;;17.67;9.57;;;9.10;99.90;;;;;;5086225;28;20036;-82
2021/11/12 00:54:13;;;;;;;;;;;9.10;99.90;;;;;;5049974;28;20051;-81
2021/11/12 00:56:39;;;;;;;18.65;9.55;;;9.10;99.90;;;;;;5076549;28;20006;-82
2021/11/12 00:59:08;;;;;;;21.75;8.80;;;9.10;99.90;;;;;;5074073;28;20382;-84
2021/11/12 01:01:38;;;;;;;15.75;9.98;;;9.10;99.90;;;;;;5087004;28;20066;-80
2021/11/12 01:04:07;;;;;;;10.65;7.18;;;9.10;99.90;;;;;;5089869;28;20090;-81
2021/11/12 01:06:35;;;;;;;25.95;9.73;;;9.10;99.90;;;;;;5059753;28;20131;-81
2021/11/12 01:09:05;;;;;;;21.60;10.95;;;9.20;99.90;;;;;;5092095;28;20154;-81
2021/11/12 01:11:32;;;;;;;12.82;11.32;;;9.20;99.90;;;;;;5086556;28;20447;-82
2021/11/12 01:13:59;;;;;;;20.33;11.95;;;9.20;99.90;;;;;;5090703;28;20121;-80
2021/11/12 01:16:26;;;;;;;19.45;9.93;;;9.20;99.90;;;;;;5067658;28;20122;-81
2021/11/12 01:18:52;;;;;;;16.38;10.02;;;9.10;99.90;;;;;;5075064;28;20044;-84
2021/11/12 01:21:19;;;;;;;15.95;9.35;;;9.20;99.90;;;;;;5084928;28;20047;-82
2021/11/12 01:23:49;;;;;;;13.55;8.63;;;9.20;99.90;;;;;;5075552;28;20043;-80
2021/11/12 01:26:16;;;;;;;16.65;9.93;;;9.10;99.90;;;;;;5095658;28;20069;-80
2021/11/12 01:28:42;;;;;;;12.70;8.88;;;9.10;99.90;;;;;;5093153;28;20404;-83
2021/11/12 01:31:09;;;;;;;14.98;9.18;;;9.10;99.90;;;;;;5086657;28;20047;-82
2021/11/12 01:33:36;;;;;;;19.35;11.57;;;9.10;99.90;;;;;;5075609;28;20042;-80
2021/11/12 01:36:15;;;;;;;14.93;10.00;;;9.00;99.90;;;;;;5092969;28;20046;-82
2021/11/12 01:38:41;;;;;;;16.60;12.23;;;9.00;99.90;;;;;;5073333;28;20474;-83
2021/11/12 01:41:06;;;;;;;12.80;9.85;;;8.90;99.90;;;;;;5078531;28;20093;-82
2021/11/12 01:43:40;;;;;;;10.88;9.30;;;8.90;99.90;;;;;;5075218;28;20481;-79
2021/11/12 01:53:36;;;;;;;17.15;11.30;;;8.90;99.90;;;;;;5095539;28;20040;-83
2021/11/12 02:01:15;;;;;;;15.68;9.90;;;8.90;99.90;;;;;;5092334;28;20455;-82
2021/11/12 02:03:41;;;;;;;11.48;9.27;;;8.90;99.90;;;;;;5093213;28;20047;-80
2021/11/12 02:06:07;;;;;;;15.55;9.00;;;9.00;99.90;;;;;;5081160;28;20410;-82
2021/11/12 02:08:33;;;;;;;15.73;10.25;;;9.10;99.90;;;;;;5056442;28;20048;-81
2021/11/12 02:10:59;;;;;;;17.73;9.90;;;9.00;99.90;;;;;;5075675;28;20043;-83
2021/11/12 02:13:26;;;;;;;25.38;10.45;;;9.00;99.90;;;;;;5072607;28;20033;-84
2021/11/12 02:15:52;;;;;;;15.35;9.68;;;9.00;99.90;;;;;;5070043;28;20032;-84
2021/11/12 02:18:28;;;;;;;17.95;11.05;;;9.10;99.90;;;;;;5092161;28;20044;-82
2021/11/12 02:21:03;;;;;;;13.35;10.27;;;9.10;99.90;;;;;;5062512;28;20049;-78
2021/11/12 02:23:36;;;;;;;20.88;11.70;;;9.20;99.90;;;;;;5088863;28;20048;-79
2021/11/12 02:26:04;;;;;;;12.98;9.90;;;9.10;99.90;;;;;;5075513;28;20048;-82
2021/11/12 02:28:30;;;;;;;20.52;10.50;;;9.20;99.90;;;;;;5091169;28;20051;-82
2021/11/12 02:30:56;;;;;;;;;;;9.20;99.90;;;;;;5076103;28;20503;-83
2021/11/12 02:33:25;;;;;;;15.48;8.88;;;9.20;99.90;;;;;;5086838;28;19915;-81
2021/11/12 02:36:09;;;;;;;16.77;9.93;;;9.10;99.90;;;;;;5092520;28;20043;-81
2021/11/12 02:38:39;;;;;;;13.50;9.48;;;9.10;99.90;;;;;;5091217;28;20079;-83
2021/11/12 02:41:05;;;;;;;13.40;9.52;;;9.10;99.90;;;;;;5093016;28;20502;-83
2021/11/12 02:43:32;;;;;;;;;;;9.10;99.90;;;;;;5075281;28;20382;-82
2021/11/12 02:46:01;;;;;;;21.90;11.48;;;9.10;99.90;;;;;;5102128;28;19927;-83
2021/11/12 02:48:28;;;;;;;16.55;8.45;;;9.10;99.90;;;;;;5048344;28;20036;-81
2021/11/12 02:50:55;;;;;;;21.50;10.27;;;9.10;99.90;;;;;;5079723;28;20124;-84
2021/11/12 02:53:23;;;;;;;12.88;7.75;;;9.20;99.90;;;;;;5075187;28;20044;-80
2021/11/12 02:55:48;;;;;;;15.98;10.77;;;9.10;99.90;;;;;;5087471;28;20048;-82
2021/11/12 02:58:15;;;;;;;13.98;8.27;;;9.10;99.90;;;;;;5062359;28;20043;-80
2021/11/12 03:00:42;;;;;;;22.90;10.20;;;9.10;99.90;;;;;;5064982;28;20080;-83
2021/11/12 03:03:08;;;;;;;14.68;9.82;;;9.10;99.90;;;;;;5062164;28;20044;-80
2021/11/12 03:05:35;;;;;;;;;;;9.20;99.90;;;;;;5090163;28;20040;-82
2021/11/12 03:08:01;;;;;;;11.50;9.35;;;9.10;99.90;;;;;;5091381;28;19955;-84
2021/11/12 03:10:27;;;;;;;13.15;8.43;;;9.10;99.90;;;;;;5085933;28;20071;-81
2021/11/12 03:12:53;;;;;;;11.43;7.82;;;9.10;99.90;;;;;;5098103;28;20464;-81
2021/11/12 03:15:20;;;;;;;9.45;8.55;;;9.10;99.90;;;;;;5089937;28;20068;-83
2021/11/12 03:17:49;;;;;;;21.58;8.73;;;9.00;99.90;;;;;;5073812;28;20043;-81
2021/11/12 03:20:16;;;;;;;11.52;8.10;;;9.10;99.90;;;;;;5090892;28;20036;-80
2021/11/12 03:22:56;;;;;;;15.55;9.20;;;9.00;99.90;;;;;;5091576;28;20083;-81
2021/11/12 04:00:25;;;;;;;16.35;9.43;;;9.00;99.90;;;;;;5075677;28;20279;-82
2021/11/12 05:11:37;;;;;;;16.30;9.32;;;8.70;99.90;;;;;;5088988;28;20404;-81
2021/11/12 05:44:41;;;;;;;12.38;8.68;;;8.50;99.90;;;;;;5079106;28;20032;-81
2021/11/12 05:55:10;;;;;;;16.13;8.85;;;8.40;99.90;;;;;;5091844;28;20047;-79
2021/11/12 05:57:38;;;;;;;13.35;8.38;;;8.40;99.90;;;;;;5085791;28;20058;-81
2021/11/12 06:00:14;;;;;;;15.88;8.95;;;8.30;99.90;;;;;;5092067;28;20044;-87
2021/11/12 06:02:40;;;;;;;14.00;7.72;;;8.30;99.90;;;;;;5070666;28;20039;-82
2021/11/12 06:05:07;;;;;;;;;;;8.30;99.90;;;;;;5092250;28;20083;-81
2021/11/12 06:07:33;;;;;;;18.00;7.82;;;8.30;99.90;;;;;;5092390;28;19916;-85
2021/11/12 06:09:59;;;;;;;15.15;9.05;;;8.30;99.90;;;;;;5090438;28;20083;-82
2021/11/12 06:12:27;;;;;;;16.60;8.35;;;8.20;99.90;;;;;;5092982;28;20067;-82
2021/11/12 06:14:53;;;;;;;9.95;7.80;;;8.30;99.90;;;;;;5090600;28;20115;-79
2021/11/12 06:17:19;;;;;;;11.60;7.78;;;8.20;99.90;;;;;;5091780;28;20123;-85
2021/11/12 06:19:45;;;;;;;19.90;10.70;;;8.30;99.90;;;;;;5069894;28;20130;-82
2021/11/12 06:22:11;;;;;;;13.68;9.07;;;8.20;99.90;;;;;;5075492;28;20047;-85
2021/11/12 06:24:40;;;;;;;12.15;8.95;;;8.20;99.90;;;;;;5086656;28;20541;-81
2021/11/12 06:27:07;;;;;;;23.27;9.18;;;8.40;99.90;;;;;;5082995;28;20086;-84
2021/11/12 06:29:34;;;;;;;13.07;10.27;;;8.20;99.90;;;;;;5092116;28;20118;-82
2021/11/12 06:32:01;;;;;;;19.58;11.25;;;8.20;99.90;;;;;;5066248;28;20051;-81
2021/11/12 06:34:28;;;;;;;14.30;8.52;;;8.40;99.90;;;;;;5091632;28;20047;-80
2021/11/12 06:36:54;;;;;;;12.25;8.80;;;8.30;99.90;;;;;;5091167;28;20076;-80
2021/11/12 06:39:20;;;;;;;27.08;10.98;;;8.20;99.90;;;;;;5072839;28;20074;-79
2021/11/12 06:52:16;;;;;;;17.70;9.68;;;8.20;99.90;;;;;;5091282;28;20047;-83
2021/11/12 06:54:45;;;;;;;17.13;9.60;;;8.20;99.90;;;;;;5078907;28;20531;-85
2021/11/12 06:57:12;;;;;;;17.55;9.88;;;8.20;99.90;;;;;;5075268;28;20485;-83
2021/11/12 06:59:39;;;;;;;11.43;9.07;;;8.20;99.90;;;;;;5091123;28;20055;-83
2021/11/12 07:02:06;;;;;;;13.38;8.32;;;8.20;99.90;;;;;;5091266;28;20048;-83
2021/11/12 07:04:32;;;;;;;12.38;7.95;;;8.20;99.90;;;;;;5089463;28;20106;-84
2021/11/12 07:06:59;;;;;;;15.65;8.68;;;8.30;99.90;;;;;;5089749;28;20398;-80
2021/11/12 07:09:25;;;;;;;18.23;10.18;;;8.30;99.90;;;;;;5070142;28;20423;-82
2021/11/12 07:11:51;;;;;;;;;;;8.30;99.90;;;;;;5074929;28;20040;-81
2021/11/12 07:14:17;;;;;;;21.20;8.85;;;8.30;99.90;;;;;;5091895;28;19938;-79
2021/11/12 07:16:43;;;;;;;14.70;10.88;;;8.30;99.90;;;;;;5075999;28;20037;-84
2021/11/12 07:19:09;;;;;;;21.70;9.30;;;8.20;99.90;;;;;;5090839;28;20350;-81
2021/11/12 07:21:35;;;;;;;23.13;9.68;;;8.20;99.90;;;;;;5074527;28;20348;-78
2021/11/12 07:24:02;;;;;;;11.55;7.45;;;8.20;99.90;;;;;;5084321;28;20457;-82
2021/11/12 07:26:29;;;;;;;18.65;8.93;;;8.30;99.90;;;;;;5087059;28;20051;-80
2021/11/12 07:28:55;;;;;;;19.15;10.68;;;8.30;99.90;;;;;;5060917;28;20052;-81
2021/11/12 07:31:21;;;;;;;23.55;12.15;;;8.30;99.90;;;;;;5089863;28;20039;-82
2021/11/12 07:33:48;;;;;;;12.35;8.85;;;8.30;99.90;;;;;;5080061;28;20036;-81
2021/11/12 07:36:21;;;;;;;9.90;7.50;;;8.30;99.90;;;;;;5081089;28;20097;-81
2021/11/12 07:38:55;;;;;;;12.73;8.63;;;8.30;99.90;;;;;;5091301;28;20056;-80
2021/11/12 07:49:01;;;;;;;18.30;9.68;;;8.40;99.90;;;;;;5087990;28;20060;-79
2021/11/12 07:51:27;;;;;;;16.13;7.47;;;8.40;99.90;;;;;;5086381;28;20497;-84
2021/11/12 07:53:54;;;;;;;20.67;10.23;;;8.40;99.90;;;;;;5071663;28;20043;-84
2021/11/12 07:56:21;;;;;;;20.92;10.45;;;8.40;99.90;;;;;;5076973;28;20416;-83
2021/11/12 07:58:47;;;;;;;13.10;8.82;;;8.40;99.90;;;;;;5086898;28;20048;-85
2021/11/12 08:01:12;;;;;;;21.50;8.80;;;8.50;99.90;;;;;;5090398;28;20417;-85
2021/11/12 08:03:39;;;;;;;23.40;9.57;;;8.50;99.90;;;;;;5078274;28;20043;-86
2021/11/12 08:06:08;;;;;;;10.80;7.28;;;8.50;99.90;;;;;;5074498;28;20040;-81
2021/11/12 08:08:36;;;;;;;24.45;9.32;;;8.60;99.90;;;;;;5085875;28;20049;-81
2021/11/12 08:11:22;;;;;;;23.30;8.60;;;8.60;99.90;;;;;;5080495;28;20060;-82
2021/11/12 08:13:54;;;;;;;13.20;7.75;;;8.80;99.90;;;;;;5087565;28;20259;-80
2021/11/12 08:16:38;;;;;;;14.35;8.23;;;8.80;99.90;;;;;;5087723;28;20038;-78
2021/11/12 08:19:18;;;;;;;17.08;10.35;;;8.80;99.90;;;;;;5072031;28;20044;-78
2021/11/12 08:24:32;;;;;;;19.88;8.27;;;8.80;99.90;;;;;;5091253;28;20051;-82
2021/11/12 08:34:55;;;;;;;12.32;7.15;;;8.90;99.90;;;;;;5079827;28;20397;-81
2021/11/12 08:37:58;;;;;;;13.23;8.13;;;9.00;99.90;;;;;;5062869;28;20033;-81
2021/11/12 08:43:24;;;;;;;9.70;7.22;;;8.90;99.90;;;;;;5090324;28;20049;-80
2021/11/12 08:45:45;;;;;;;8.98;7.25;;;9.00;99.90;;;;;;5091014;28;20052;-83
2021/11/12 08:48:16;;;;;;;7.72;6.68;;;9.00;99.90;;;;;;5051680;28;20047;-84
2021/11/12 08:50:42;;;;;;;8.23;5.57;;;9.00;99.90;;;;;;5085745;28;20619;-82
2021/11/12 08:53:10;;;;;;;;;;;9.00;99.90;;;;;;5081810;28;20370;-80
2021/11/12 08:55:38;;;;;;;10.48;6.78;;;9.00;99.90;;;;;;5089794;28;20018;-79
2021/11/12 08:58:06;;;;;;;7.53;5.88;;;9.00;99.90;;;;;;5059390;28;20067;-81
2021/11/12 09:00:33;;;;;;;11.57;6.38;;;8.90;99.90;;;;;;5085480;28;20056;-83
2021/11/12 09:02:59;;;;;;;7.45;5.07;;;8.90;99.90;;;;;;5060644;28;20039;-83
2021/11/12 09:05:25;;;;;;;6.60;5.95;;;8.80;99.90;;;;;;5083908;28;20489;-81
2021/11/12 09:07:52;;;;;;;13.93;7.75;;;8.70;99.90;;;;;;5089079;28;20062;-80
2021/11/12 09:10:19;;;;;;;10.35;7.45;;;8.70;99.90;;;;;;5072073;28;20040;-83
2021/11/12 09:12:49;;;;;;;13.05;6.20;;;8.60;99.90;;;;;;5087118;28;20477;-81
2021/11/12 09:15:25;;;;;;;11.80;6.43;;;8.60;99.90;;;;;;5059452;28;20082;-83
2021/11/12 09:17:51;;;;;;;12.18;5.80;;;8.70;99.90;;;;;;5070982;28;20115;-84
2021/11/12 09:20:18;;;;;;;11.23;5.97;;;8.70;99.90;;;;;;5087149;28;20044;-84
2021/11/12 09:22:44;;;;;;;8.80;5.90;;;8.70;99.90;;;;;;5061633;28;20044;-80
2021/11/12 09:25:11;;;;;;;7.55;5.18;;;8.70;99.90;;;;;;5089952;28;20131;-80
2021/11/12 09:27:37;;;;;;;8.20;5.45;;;8.70;99.90;;;;;;5075204;28;20054;-81
2021/11/12 09:30:10;;;;;;;11.68;7.95;;;8.70;99.90;;;;;;5066240;28;20419;-81
2021/11/12 09:32:36;;;;;;;11.35;6.80;;;8.70;99.90;;;;;;5064926;28;20439;-79
2021/11/12 09:35:03;;;;;;;16.80;8.48;;;8.70;99.90;;;;;;5093491;28;20028;-79
2021/11/12 09:37:29;;;;;;;9.27;6.70;;;8.80;99.90;;;;;;5073095;28;20048;-84
2021/11/12 09:39:57;;;;;;;;;;;8.80;99.90;;;;;;5093077;28;20485;-83
2021/11/12 09:42:28;;;;;;;9.73;5.45;;;8.80;99.90;;;;;;5094373;28;19947;-83
2021/11/12 09:44:55;;;;;;;8.32;5.75;;;8.90;99.90;;;;;;5096786;28;20456;-82
2021/11/12 09:47:25;;;;;;;13.23;5.38;;;8.90;99.90;;;;;;5087906;28;20059;-83
2021/11/12 09:49:57;;;;;;;12.98;8.02;;;8.90;99.90;;;;;;5076755;28;20047;-78
2021/11/12 09:52:25;;;;;;;7.20;5.38;;;8.90;99.90;;;;;;5098912;28;20056;-81
2021/11/12 09:54:52;;;;;;;8.82;6.35;;;9.00;99.90;;;;;;5079902;28;20082;-84
2021/11/12 09:57:18;;;;;;;8.15;5.47;;;9.00;99.90;;;;;;5080563;28;20092;-82
2021/11/12 09:59:53;;;;;;;6.43;4.65;;;9.00;99.90;;;;;;5067407;28;20105;-83
2021/11/12 10:02:19;;;;;;;5.63;4.75;;;9.10;99.90;;;;;;5073275;28;20172;-83
2021/11/12 10:04:46;;;;;;;9.55;5.93;;;9.10;99.90;;;;;;5082981;28;20044;-85
2021/11/12 10:07:15;;;;;;;18.25;7.95;;;9.20;99.90;;;;;;5054501;28;20041;-83
2021/11/12 10:09:45;;;;;;;7.80;5.90;;;9.20;99.90;;;;;;5080633;28;20036;-83
2021/11/12 10:12:11;;;;;;;9.23;5.47;;;9.30;99.90;;;;;;5084369;28;20028;-83
2021/11/12 10:14:57;;;;;;;14.30;6.72;;;9.30;99.90;;;;;;5072371;28;20051;-82
2021/11/12 10:17:23;;;;;;;6.97;5.70;;;9.40;99.90;;;;;;5081408;28;20107;-82
2021/11/12 10:19:53;;;;;;;15.55;7.78;;;9.50;99.90;;;;;;5090129;28;20476;-82
2021/11/12 10:22:24;;;;;;;10.85;6.22;;;9.50;99.90;;;;;;5089396;28;20047;-85
2021/11/12 10:24:50;;;;;;;11.57;6.25;;;9.60;99.90;;;;;;5072324;28;20118;-80
2021/11/12 10:27:19;;;;;;;5.18;4.50;;;9.70;99.90;;;;;;5092778;28;20548;-82
2021/11/12 10:29:54;;;;;;;13.05;5.38;;;9.70;99.90;;;;;;5092847;28;20165;-80
2021/11/12 10:32:32;;;;;;;14.40;6.30;;;9.70;99.90;;;;;;5090393;28;20040;-79
2021/11/12 10:35:07;;;;;;;4.88;4.38;;;9.70;99.90;;;;;;5087526;28;20654;-79
2021/11/12 10:37:33;;;;;;;7.70;5.68;;;9.60;99.90;;;;;;5088017;28;20039;-82
2021/11/12 10:40:09;;;;;;;7.03;4.55;;;9.70;99.90;;;;;;5083312;28;20102;-82
2021/11/12 10:42:44;;;;;;;7.72;5.63;;;9.70;99.90;;;;;;5085773;28;20043;-84
2021/11/12 10:45:23;;;;;;;7.68;5.28;;;9.80;99.90;;;;;;5097444;28;20500;-84
2021/11/12 10:47:56;;;;;;;8.00;4.28;;;10.00;99.90;;;;;;5090656;28;20106;-81
2021/11/12 10:50:26;;;;;;;10.25;5.95;;;10.00;99.90;;;;;;5091200;28;20048;-81
2021/11/12 10:52:57;;;;;;;7.82;5.55;;;10.10;99.90;;;;;;5091224;28;20097;-84
2021/11/12 10:55:24;;;;;;;12.75;7.20;;;10.10;99.90;;;;;;5090978;28;20047;-82
2021/11/12 10:57:59;;;;;;;5.40;4.90;;;10.20;99.90;;;;;;5080969;28;20040;-83
2021/11/12 11:00:31;;;;;;;7.15;5.47;;;10.20;99.90;;;;;;5083942;28;20161;-83
2021/11/12 11:02:58;;;;;;;10.10;6.53;;;10.30;99.90;;;;;;5071969;28;20100;-80
2021/11/12 11:05:42;;;;;;;8.07;5.70;;;10.30;99.90;;;;;;5077056;28;20048;-83
2021/11/12 11:08:13;;;;;;;9.98;5.60;;;10.50;99.90;;;;;;5083848;28;20044;-82
2021/11/12 11:10:44;;;;;;;12.63;7.05;;;10.60;99.90;;;;;;5093108;28;20039;-83
2021/11/12 11:13:19;;;;;;;11.75;7.30;;;10.60;99.90;;;;;;5092998;28;20504;-82
2021/11/12 11:15:50;;;;;;;22.73;6.85;;;10.60;99.90;;;;;;5069859;28;20056;-84
2021/11/12 11:18:43;;;;;;;8.43;5.38;;;10.70;99.90;;;;;;5076004;28;20044;-80
2021/11/12 11:21:25;;;;;;;12.27;6.40;;;10.80;99.90;;;;;;5074860;28;20044;-83
2021/11/12 11:23:57;;;;;;;9.55;6.35;;;10.80;99.90;;;;;;5069138;28;20058;-81
2021/11/12 11:26:22;;;;;;;9.82;6.05;;;10.80;99.90;;;;;;5074950;28;20127;-78
2021/11/12 11:29:02;;;;;;;19.58;7.03;;;10.90;99.90;;;;;;5085272;28;20453;-81
2021/11/12 11:31:29;;;;;;;8.77;5.35;;;10.90;99.90;;;;;;5063049;28;20071;-81
2021/11/12 11:33:57;;;;;;;7.53;5.88;;;10.90;99.90;;;;;;5091091;28;20484;-83
2021/11/12 11:36:26;;;;;;;9.80;5.88;;;10.90;99.90;;;;;;5090636;28;20485;-80
2021/11/12 11:38:53;;;;;;;6.88;5.03;;;10.90;99.90;;;;;;5083765;28;20229;-84
2021/11/12 11:41:23;;;;;;;8.15;5.68;;;10.90;99.90;;;;;;5071933;28;20047;-80
2021/11/12 11:43:49;;;;;;;12.57;6.03;;;10.80;99.90;;;;;;5093902;28;20484;-81
2021/11/12 11:46:20;;;;;;;12.65;7.25;;;10.80;99.90;;;;;;5090713;28;20570;-80
2021/11/12 11:48:46;;;;;;;10.35;5.13;;;10.80;99.90;;;;;;5064255;28;20052;-82
2021/11/12 11:51:33;;;;;;;8.82;5.03;;;10.80;99.90;;;;;;5051010;28;20110;-82
2021/11/12 11:54:11;;;;;;;10.65;5.82;;;10.80;99.90;;;;;;5078088;28;20479;-83
2021/11/12 11:56:57;;;;;;;6.68;4.20;;;10.80;99.90;;;;;;5090800;28;20123;-83
2021/11/12 11:59:25;;;;;;;14.35;4.93;;;10.80;99.90;;;;;;5076011;28;20079;-81
2021/11/12 12:01:58;;;;;;;7.93;4.72;;;10.70;99.90;;;;;;5091262;28;20067;-82
2021/11/12 12:04:29;;;;;;;5.97;4.43;;;10.60;99.90;;;;;;5079583;28;20059;-84
2021/11/12 12:07:03;;;;;;;9.27;4.68;;;10.60;99.90;;;;;;5073234;28;20504;-83
2021/11/12 12:09:47;;;;;;;12.00;6.53;;;10.60;99.90;;;;;;5061856;28;20495;-81
2021/11/12 12:12:33;;;;;;;8.90;5.30;;;10.60;99.90;;;;;;5068711;28;20101;-83
2021/11/12 12:15:05;;;;;;;7.15;5.18;;;10.50;99.90;;;;;;5069316;28;20040;-81
2021/11/12 12:18:10;;;;;;;7.55;4.45;;;10.50;99.90;;;;;;5079672;28;20370;-83
2021/11/12 12:21:00;;;;;;;11.10;5.88;;;10.50;99.90;;;;;;5090426;28;20048;-81
2021/11/12 13:25:36;;;;;;;20.40;6.93;;;9.50;99.90;;;;;;5087479;28;20056;-84
2021/11/12 13:28:11;;;;;;;15.05;7.10;;;9.50;99.90;;;;;;5071679;28;20073;-79
2021/11/12 13:30:44;;;;;;;10.45;7.93;;;9.40;99.90;;;;;;5084433;28;20079;-81
2021/11/12 13:33:36;;;;;;;12.55;6.97;;;9.40;99.90;;;;;;5081764;28;20044;-82
2021/11/12 13:36:08;;;;;;;8.20;6.75;;;9.30;99.90;;;;;;5088643;28;20051;-82
2021/11/12 13:38:43;;;;;;;14.23;7.88;;;9.30;99.90;;;;;;5083845;28;20396;-83
2021/11/12 13:41:11;;;;;;;16.90;8.63;;;9.20;99.90;;;;;;5080468;28;20044;-83
2021/11/12 13:43:42;;;;;;;12.15;6.30;;;9.20;99.90;;;;;;5073840;28;20543;-80
2021/11/12 13:46:10;;;;;;;8.93;5.80;;;9.20;99.90;;;;;;5068365;28;20058;-82
2021/11/12 13:48:48;;;;;;;16.38;7.25;;;9.10;99.90;;;;;;5073715;28;20048;-82
2021/11/12 13:51:17;;;;;;;13.35;7.18;;;9.10;99.90;;;;;;5064946;28;20481;-79
2021/11/12 13:53:47;;;;;;;24.58;8.32;;;9.00;99.90;;;;;;5065050;28;20040;-81
2021/11/12 13:56:13;;;;;;;11.95;7.07;;;9.00;99.90;;;;;;5055864;28;20035;-79
2021/11/12 13:58:40;;;;;;;12.02;8.50;;;9.00;99.90;;;;;;5073346;28;20047;-81
2021/11/12 14:01:21;;;;;;;8.57;5.72;;;8.90;99.90;;;;;;5052854;28;20059;-82
2021/11/12 14:03:49;;;;;;;13.80;6.93;;;8.80;99.90;;;;;;5067923;28;20491;-84
2021/11/12 14:06:17;;;;;;;14.98;6.43;;;8.80;99.90;;;;;;5054519;28;20066;-84
2021/11/12 14:08:51;;;;;;;18.88;8.48;;;8.70;99.90;;;;;;5089388;28;20073;-84
2021/11/12 14:11:25;;;;;;;14.02;7.78;;;8.70;99.90;;;;;;5081578;28;20059;-81
2021/11/12 14:13:58;;;;;;;11.98;8.55;;;8.60;99.90;;;;;;5083667;28;20048;-83
2021/11/12 14:16:57;;;;;;;7.35;6.25;;;8.50;99.90;;;;;;5092727;28;20040;-82
2021/11/12 14:24:39;;;;;;;12.98;7.88;;;8.40;99.90;;;;;;5084300;28;20794;-85
2021/11/12 14:30:15;;;;;;;18.15;6.90;;;8.20;99.90;;;;;;5089667;28;20120;-83
2021/11/12 14:40:59;;;;;;;7.53;6.78;;;7.90;99.90;;;;;;5079099;28;20393;-82
2021/11/12 14:49:11;;;;;;;20.45;9.57;;;7.80;99.90;;;;;;5084871;28;20048;-81
2021/11/12 14:54:38;;;;;;;20.50;9.93;;;7.60;99.90;;;;;;5080927;28;20452;-83
2021/11/12 14:57:41;;;;;;;16.75;8.63;;;7.60;99.90;;;;;;5062756;28;20036;-79
2021/11/12 15:00:08;;;;;;;15.98;8.07;;;7.60;99.90;;;;;;5079118;28;20460;-82
2021/11/12 15:02:37;;;;;;;10.30;7.38;;;7.50;99.90;;;;;;5089984;28;20048;-83
2021/11/12 15:05:04;;;;;;;16.48;8.32;;;7.50;99.90;;;;;;5054382;28;20041;-81
2021/11/12 15:10:09;;;;;;;19.67;11.43;;;7.40;99.90;;;;;;5086346;28;20045;-80
2021/11/12 15:12:36;;;;;;;20.02;10.75;;;7.40;99.90;;;;;;5061674;28;20043;-80
2021/11/12 15:15:03;;;;;;;17.45;11.00;;;7.30;99.90;;;;;;5083755;28;20043;-79
2021/11/12 15:17:30;;;;;;;17.23;10.52;;;7.30;99.90;;;;;;5070013;28;20047;-80
2021/11/12 15:19:57;;;;;;;15.88;8.23;;;7.30;99.90;;;;;;5066701;28;20421;-80
2021/11/12 15:25:28;;;;;;;15.63;9.80;;;7.20;99.90;;;;;;5065795;28;20399;-80
2021/11/12 15:30:26;;;;;;;21.70;7.75;;;7.10;99.90;;;;;;5086315;28;20048;-79
2021/11/12 15:32:56;;;;;;;14.52;9.30;;;7.10;99.90;;;;;;5089798;28;20044;-79
2021/11/12 15:35:29;;;;;;;16.83;9.70;;;7.10;99.90;;;;;;5068275;28;20041;-79
2021/11/12 15:38:00;;;;;;;12.57;8.10;;;7.00;99.90;;;;;;5082943;28;20047;-83
2021/11/12 15:40:38;;;;;;;22.98;8.20;;;7.00;99.90;;;;;;5078443;28;20488;-81
2021/11/12 15:48:17;;;;;;;16.83;8.63;;;7.00;99.90;;;;;;5071378;28;20481;-79
2021/11/12 15:51:08;;;;;;;19.42;12.25;;;6.90;99.90;;;;;;5075768;28;20040;-79
2021/11/12 16:01:45;;;;;;;19.48;11.15;;;7.20;99.90;;;;;;5084769;28;20446;-79
2021/11/12 16:09:52;;;;;;;13.95;8.68;;;6.90;99.90;;;;;;5071015;28;20044;-82
2021/11/12 16:12:28;;;;;;;15.98;8.13;;;6.90;99.90;;;;;;5057847;28;20358;-80
2021/11/12 16:25:32;;;;;;;16.27;8.88;;;7.00;99.90;;;;;;5083551;28;20054;-81
2021/11/12 16:28:03;;;;;;;17.02;10.43;;;6.90;99.90;;;;;;5067850;28;20046;-80
2021/11/12 16:30:32;;;;;;;10.02;7.65;;;6.80;99.90;;;;;;5067709;28;20044;-80
2021/11/12 16:33:00;;;;;;;13.90;9.13;;;6.70;99.90;;;;;;5089630;28;20035;-80
2021/11/12 16:35:29;;;;;;;24.45;8.25;;;6.60;99.90;;;;;;5072535;28;20051;-79
2021/11/12 16:38:00;;;;;;;16.98;10.13;;;6.70;99.90;;;;;;5066582;28;20502;-80
2021/11/12 16:40:32;;;;;;;13.55;8.55;;;6.70;99.90;;;;;;5064284;28;20112;-81
2021/11/12 17:02:54;;;;;;;13.27;7.63;;;6.60;99.90;;;;;;5090467;28;20100;-81
2021/11/12 17:05:36;;;;;;;22.70;12.35;;;6.60;99.90;;;;;;5093135;28;20492;-81
2021/11/12 17:08:13;;;;;;;10.63;7.40;;;6.60;99.90;;;;;;5081576;28;20048;-80
2021/11/12 17:11:03;;;;;;;18.58;8.55;;;6.50;99.90;;;;;;5089515;28;20651;-79
2021/11/12 17:13:46;;;;;;;24.60;11.57;;;6.60;99.90;;;;;;5089883;28;20105;-80
2021/11/12 18:02:16;;;;;;;13.07;7.60;;;6.80;99.90;;;;;;5088681;28;20439;-81
2021/11/12 18:15:34;;;;;;;12.95;7.63;;;6.90;99.90;;;;;;5091270;28;20083;-79
2021/11/12 18:18:56;;;;;;;15.20;8.98;;;6.90;99.90;;;;;;5086551;28;20040;-80
2021/11/12 21:48:06;;;;;;;10.55;7.10;;;7.30;99.90;;;;;;5080402;28;20543;-81
2021/11/12 21:50:33;;;;;;;12.40;6.40;;;7.40;99.90;;;;;;5086156;28;20397;-80
2021/11/12 21:53:00;;;;;;;16.20;5.65;;;7.40;99.90;;;;;;5074969;28;20095;-78
2021/11/12 21:55:26;;;;;;;10.60;6.82;;;7.50;99.90;;;;;;5080889;28;20051;-81
2021/11/12 21:57:52;;;;;;;5.75;4.65;;;7.50;99.90;;;;;;5085302;28;20474;-79
2021/11/12 22:00:18;;;;;;;10.88;4.80;;;7.50;99.90;;;;;;5089384;28;20043;-79
2021/11/12 22:02:45;;;;;;;12.93;6.78;;;7.60;99.90;;;;;;5052869;28;20052;-78
2021/11/12 22:05:11;;;;;;;7.07;5.13;;;7.60;99.90;;;;;;5080846;28;20397;-78
2021/11/12 22:07:37;;;;;;;11.20;8.25;;;7.60;99.90;;;;;;5088129;28;20044;-80
2021/11/12 22:10:04;;;;;;;;;;;7.60;99.90;;;;;;5082042;28;20052;-81
2021/11/12 22:12:30;;;;;;;4.82;4.13;;;7.70;99.90;;;;;;5087175;28;19973;-81
2021/11/12 22:14:56;;;;;;;15.40;9.07;;;7.70;99.90;;;;;;5073391;28;20123;-78
2021/11/12 22:17:22;;;;;;;11.30;6.07;;;7.50;99.90;;;;;;5082327;28;20058;-78
2021/11/12 22:19:47;;;;;;;11.65;5.28;;;7.70;99.90;;;;;;5061287;28;20048;-80
2021/11/12 22:22:13;;;;;;;8.80;5.88;;;7.80;99.90;;;;;;5078398;28;20059;-79
2021/11/12 22:24:39;;;;;;;9.43;6.43;;;7.80;99.90;;;;;;5060538;28;20123;-80
2021/11/12 22:27:05;;;;;;;10.20;6.30;;;7.80;99.90;;;;;;5082529;28;20189;-79
2021/11/12 22:29:31;;;;;;;13.70;5.53;;;7.90;99.90;;;;;;5062543;28;20055;-78
2021/11/12 22:31:57;;;;;;;11.00;5.72;;;7.90;99.90;;;;;;5088077;28;20040;-79
2021/11/12 22:34:23;;;;;;;8.88;5.90;;;7.90;99.90;;;;;;5085881;28;20047;-81
2021/11/12 22:36:50;;;;;;;14.45;7.07;;;7.90;99.90;;;;;;5066179;28;20573;-81
2021/11/12 22:39:17;;;;;;;8.60;5.47;;;7.90;99.90;;;;;;5071264;28;20538;-79
2021/11/12 22:41:45;;;;;;;10.55;6.32;;;7.90;99.90;;;;;;5089654;28;20040;-83
2021/11/12 22:44:11;;;;;;;10.02;5.70;;;7.90;99.90;;;;;;5070667;28;20046;-80
2021/11/12 22:46:38;;;;;;;17.00;6.43;;;7.90;99.90;;;;;;5083095;28;20059;-81
2021/11/12 22:49:05;;;;;;;12.90;6.50;;;7.90;99.90;;;;;;5061270;28;20055;-80
2021/11/12 22:51:32;;;;;;;12.77;7.65;;;7.90;99.90;;;;;;5075330;28;20040;-81
2021/11/12 22:53:59;;;;;;;10.90;7.38;;;7.80;99.90;;;;;;5087387;28;20040;-79
2021/11/12 22:56:25;;;;;;;13.07;6.57;;;7.80;99.90;;;;;;5082138;28;20040;-81
2021/11/12 22:58:52;;;;;;;9.20;5.20;;;7.80;99.90;;;;;;5072182;28;20051;-81
2021/11/12 23:01:19;;;;;;;;;;;7.90;99.90;;;;;;5085639;28;20055;-80
2021/11/12 23:03:45;;;;;;;11.20;5.35;;;7.90;99.90;;;;;;5094206;28;20428;-79
2021/11/12 23:06:11;;;;;;;11.13;6.72;;;7.90;99.90;;;;;;5086314;28;20516;-79
2021/11/12 23:08:43;;;;;;;11.57;6.63;;;7.90;99.90;;;;;;5087675;28;20059;-80
2021/11/12 23:11:12;;;;;;;12.15;6.28;;;8.00;99.90;;;;;;5088267;28;20044;-79
2021/11/12 23:13:39;;;;;;;6.50;4.10;;;8.00;99.90;;;;;;5077330;28;20098;-80
2021/11/12 23:16:05;;;;;;;11.27;5.32;;;7.90;99.90;;;;;;5088278;28;20032;-79
2021/11/12 23:18:32;;;;;;;11.30;7.32;;;8.00;99.90;;;;;;5084965;28;20032;-81
2021/11/12 23:20:58;;;;;;;8.90;6.45;;;7.90;99.90;;;;;;5084400;28;20055;-79
2021/11/12 23:23:24;;;;;;;13.75;6.45;;;7.90;99.90;;;;;;5079512;28;20036;-80
2021/11/12 23:25:50;;;;;;;13.00;6.10;;;7.90;99.90;;;;;;5090027;28;20044;-79
2021/11/12 23:28:16;;;;;;;18.95;7.90;;;7.90;99.90;;;;;;5086635;28;20062;-79